createdAt,value
2022-09-28T17:18:18.866Z,40.30
2022-09-28T17:20:53.487Z,33.67
2022-09-28T17:25:50.002Z,25.92
2022-09-28T17:28:26.641Z,23.80
2022-09-28T17:30:54.047Z,19.55
2022-09-28T17:36:00.761Z,16.38
2022-09-28T17:38:35.638Z,14.35
2022-09-28T17:43:34.979Z,12.43
2022-09-28T17:46:04.106Z,13.05
2022-09-28T17:48:33.519Z,11.98
2022-09-28T17:53:30.596Z,11.67
2022-09-28T17:55:57.492Z,11.65
2022-09-28T17:58:26.481Z,10.95
2022-09-28T18:00:53.611Z,10.73
2022-09-28T18:03:22.638Z,9.70
2022-09-28T18:05:53.746Z,9.75
2022-09-28T18:08:21.807Z,9.27
2022-09-28T18:10:50.801Z,9.95
2022-09-28T18:13:17.697Z,8.98
2022-09-28T18:15:46.926Z,9.10
2022-09-28T18:18:13.906Z,8.63
2022-09-28T18:20:42.682Z,21.35
2022-09-28T18:23:11.810Z,59.87
2022-09-28T18:25:44.645Z,55.88
2022-09-28T18:28:12.950Z,48.17
2022-09-28T18:30:42.757Z,42.05
2022-09-28T18:33:11.277Z,35.47
2022-09-28T18:35:40.467Z,32.95
2022-09-28T18:38:07.587Z,28.73
2022-09-28T18:40:35.128Z,25.83
2022-09-28T18:43:03.358Z,26.45
2022-09-28T18:45:31.323Z,25.95
2022-09-28T18:47:59.949Z,23.83
2022-09-28T18:50:30.458Z,21.90
2022-09-28T18:53:11.538Z,21.77
2022-09-28T18:55:42.540Z,20.27
2022-09-28T18:58:10.610Z,19.08
2022-09-28T19:00:41.307Z,18.75
2022-09-28T19:03:13.183Z,18.08
2022-09-28T19:05:43.493Z,16.60
2022-09-28T19:08:10.458Z,16.50
2022-09-28T19:10:38.696Z,16.83
2022-09-28T19:13:06.305Z,15.77
2022-09-28T19:15:34.716Z,15.73
2022-09-28T19:18:01.608Z,13.80
2022-09-28T19:20:28.471Z,14.65
2022-09-28T19:22:55.476Z,13.80
2022-09-28T19:25:22.239Z,14.52
2022-09-28T19:27:49.704Z,12.90
2022-09-28T19:30:16.520Z,12.50
2022-09-28T19:32:43.425Z,12.02
2022-09-28T19:35:10.192Z,12.30
2022-09-28T19:37:38.736Z,11.55
2022-09-28T19:40:06.464Z,12.40
2022-09-28T19:42:35.253Z,11.15
2022-09-28T19:45:02.307Z,11.17
2022-09-28T19:47:29.079Z,10.63
2022-09-28T19:49:55.860Z,10.43
2022-09-28T19:52:22.601Z,10.45
2022-09-28T19:55:00.934Z,10.23
2022-09-28T19:57:30.533Z,10.07
2022-09-28T20:00:02.043Z,10.60
2022-09-28T20:02:29.830Z,9.90
2022-09-28T20:04:56.651Z,10.07
2022-09-28T20:07:23.533Z,9.65
2022-09-28T20:09:50.275Z,9.68
2022-09-28T20:12:16.993Z,9.68
2022-09-28T20:14:43.691Z,9.77
2022-09-28T20:17:10.474Z,84.93
2022-09-28T20:19:37.199Z,86.60
2022-09-28T20:22:04.003Z,65.00
2022-09-28T20:24:31.594Z,55.13
2022-09-28T20:26:58.549Z,47.88
2022-09-28T20:29:25.504Z,40.50
2022-09-28T20:31:52.555Z,37.75
2022-09-28T20:34:19.399Z,34.85
2022-09-28T20:36:46.203Z,33.58
2022-09-28T20:39:13.398Z,32.03
2022-09-28T20:41:40.194Z,30.77
2022-09-28T20:44:07.322Z,28.33
2022-09-28T20:46:38.019Z,27.95
2022-09-28T20:49:05.342Z,27.77
2022-09-28T20:51:32.551Z,26.13
2022-09-28T20:53:59.550Z,26.45
2022-09-28T20:56:31.546Z,23.50
2022-09-28T20:58:58.303Z,24.02
2022-09-28T21:01:30.422Z,22.88
2022-09-28T21:04:02.029Z,22.35
2022-09-28T21:06:33.966Z,22.92
2022-09-28T21:09:01.137Z,20.92
2022-09-28T21:11:29.489Z,21.33
2022-09-28T21:14:01.723Z,20.70
2022-09-28T21:16:30.239Z,19.95
2022-09-28T21:18:57.481Z,19.77
2022-09-28T21:21:25.134Z,19.58
2022-09-28T21:23:55.917Z,18.17
2022-09-28T21:26:25.007Z,18.10
2022-09-28T21:29:03.385Z,17.25
2022-09-28T21:31:51.448Z,16.45
2022-09-28T21:34:20.329Z,92.40
2022-09-28T21:36:48.584Z,114.37
2022-09-28T21:39:15.414Z,98.70
2022-09-28T21:41:42.112Z,81.20
2022-09-28T21:44:08.909Z,69.85
2022-09-28T21:46:37.293Z,61.15
2022-09-28T21:49:06.302Z,56.30
2022-09-28T21:51:34.215Z,52.15
2022-09-28T21:54:01.056Z,51.30
2022-09-28T21:56:27.804Z,48.35
2022-09-28T21:58:54.511Z,59.30
2022-09-28T22:01:23.453Z,70.10
2022-09-28T22:03:52.372Z,65.00
2022-09-28T22:06:21.448Z,62.10
2022-09-28T22:08:49.416Z,57.38
2022-09-28T22:11:18.789Z,54.58
2022-09-28T22:13:53.661Z,50.50
2022-09-28T22:16:22.299Z,48.72
2022-09-28T22:18:49.633Z,47.38
2022-09-28T22:21:24.885Z,46.15
2022-09-28T22:23:51.687Z,46.97
2022-09-28T22:26:25.480Z,43.85
2022-09-28T22:29:04.685Z,40.35
2022-09-28T22:31:34.336Z,42.35
2022-09-28T22:36:28.665Z,38.88
2022-09-28T22:38:56.184Z,37.80
2022-09-28T22:41:24.357Z,35.72
2022-09-28T22:43:52.545Z,35.05
2022-09-28T22:46:27.400Z,33.95
2022-09-28T22:48:56.151Z,34.42
2022-09-28T22:51:24.131Z,32.83
2022-09-28T22:53:50.843Z,32.83
2022-09-28T22:56:19.164Z,31.73
2022-09-28T22:58:46.596Z,31.27
2022-09-28T23:01:21.638Z,31.17
2022-09-28T23:03:48.754Z,30.70
2022-09-28T23:06:17.553Z,29.80
2022-09-28T23:08:45.621Z,28.97
2022-09-28T23:11:12.387Z,29.13
2022-09-28T23:13:39.194Z,28.33
2022-09-28T23:16:08.260Z,26.70
2022-09-28T23:18:37.077Z,27.00
2022-09-28T23:21:06.140Z,26.53
2022-09-28T23:23:33.728Z,26.95
2022-09-28T23:26:00.972Z,26.13
2022-09-28T23:28:27.749Z,24.50
2022-09-28T23:30:54.701Z,25.33
2022-09-28T23:33:21.864Z,24.05
2022-09-28T23:35:49.297Z,24.05
2022-09-28T23:38:20.655Z,24.42
2022-09-28T23:40:47.987Z,22.85
2022-09-28T23:43:15.324Z,23.73
2022-09-28T23:45:45.546Z,22.52
2022-09-28T23:48:14.855Z,23.42
2022-09-28T23:50:44.803Z,21.70
2022-09-28T23:53:14.181Z,22.00
2022-09-28T23:55:42.581Z,22.20
2022-09-28T23:58:10.007Z,22.15
